createdAt,value
2022-11-18T00:01:39.375Z,9.30
2022-11-18T00:04:06.655Z,9.30
2022-11-18T00:06:33.332Z,9.30
2022-11-18T00:09:01.124Z,9.20
2022-11-18T00:11:46.731Z,9.10
2022-11-18T00:14:19.325Z,9.10
2022-11-18T00:16:53.426Z,9.00
2022-11-18T00:19:22.569Z,9.00
2022-11-18T00:21:50.176Z,9.00
2022-11-18T00:24:17.165Z,9.10
2022-11-18T00:26:43.928Z,9.00
2022-11-18T00:29:11.681Z,9.00
2022-11-18T00:31:39.027Z,9.00
2022-11-18T00:34:05.973Z,9.10
2022-11-18T00:36:32.969Z,9.10
2022-11-18T00:38:59.764Z,9.20
2022-11-18T00:41:46.874Z,9.10
2022-11-18T00:44:13.572Z,9.10
2022-11-18T00:46:40.448Z,9.10
2022-11-18T00:49:07.508Z,9.10
2022-11-18T00:51:34.757Z,9.20
2022-11-18T00:54:01.985Z,9.10
2022-11-18T00:56:28.673Z,9.10
2022-11-18T00:58:55.364Z,9.20
2022-11-18T01:01:22.203Z,9.20
2022-11-18T01:03:48.957Z,9.10
2022-11-18T01:06:15.640Z,9.10
2022-11-18T01:08:42.559Z,9.20
2022-11-18T01:11:28.096Z,9.20
2022-11-18T01:13:55.328Z,9.10
2022-11-18T01:16:27.746Z,9.10
2022-11-18T01:18:54.547Z,9.00
2022-11-18T01:21:21.460Z,9.10
2022-11-18T01:23:48.532Z,9.10
2022-11-18T01:26:16.661Z,9.20
2022-11-18T01:28:44.128Z,9.10
2022-11-18T01:31:13.881Z,9.20
2022-11-18T01:33:41.069Z,9.20
2022-11-18T01:36:27.431Z,9.20
2022-11-18T01:38:55.159Z,9.20
2022-11-18T01:41:24.716Z,9.20
2022-11-18T01:44:03.214Z,9.20
2022-11-18T01:46:32.690Z,9.20
2022-11-18T01:49:07.067Z,9.20
2022-11-18T01:51:38.992Z,9.20
2022-11-18T01:54:14.595Z,9.20
2022-11-18T01:56:52.607Z,9.20
2022-11-18T01:59:24.549Z,9.20
2022-11-18T02:01:54.034Z,9.30
2022-11-18T02:04:25.288Z,9.30
2022-11-18T02:06:52.738Z,9.30
2022-11-18T02:09:19.546Z,9.30
2022-11-18T02:11:56.778Z,9.40
2022-11-18T02:14:28.112Z,9.30
2022-11-18T02:17:12.823Z,9.30
2022-11-18T02:19:42.656Z,9.30
2022-11-18T02:22:34.017Z,9.30
2022-11-18T02:25:06.891Z,9.30
2022-11-18T02:28:14.568Z,9.30
2022-11-18T02:31:08.476Z,9.30
2022-11-18T02:33:59.587Z,9.30
2022-11-18T02:36:38.387Z,9.30
2022-11-18T02:39:11.030Z,9.30
2022-11-18T02:41:41.962Z,9.30
2022-11-18T02:44:14.165Z,9.30
2022-11-18T02:46:44.312Z,9.30
2022-11-18T02:49:22.251Z,9.30
2022-11-18T02:51:50.437Z,9.30
2022-11-18T02:54:19.755Z,9.40
2022-11-18T02:56:48.866Z,9.30
2022-11-18T02:59:19.628Z,9.30
2022-11-18T03:01:47.332Z,9.30
2022-11-18T03:04:16.338Z,9.30
2022-11-18T03:06:50.061Z,9.30
2022-11-18T03:09:32.011Z,9.30
2022-11-18T03:12:22.785Z,9.20
2022-11-18T03:14:52.572Z,9.10
2022-11-18T03:17:45.422Z,9.20
2022-11-18T03:20:24.973Z,9.20
2022-11-18T03:23:26.871Z,9.20
2022-11-18T03:25:57.659Z,9.20
2022-11-18T03:28:30.524Z,9.10
2022-11-18T03:31:05.986Z,9.10
2022-11-18T03:33:41.030Z,9.20
2022-11-18T03:36:12.285Z,9.20
2022-11-18T03:38:44.363Z,9.30
2022-11-18T03:41:14.019Z,9.20
2022-11-18T03:43:46.906Z,9.20
2022-11-18T03:46:36.563Z,9.30
2022-11-18T03:49:07.134Z,9.20
2022-11-18T03:51:44.753Z,9.20
2022-11-18T03:54:20.458Z,9.20
2022-11-18T03:56:54.827Z,9.10
2022-11-18T03:59:29.574Z,9.20
2022-11-18T04:02:03.500Z,9.10
2022-11-18T04:04:30.621Z,9.10
2022-11-18T04:07:17.609Z,9.10
2022-11-18T04:09:59.564Z,9.10
2022-11-18T04:12:30.559Z,9.20
2022-11-18T04:14:58.957Z,9.20
2022-11-18T04:17:28.468Z,9.20
2022-11-18T04:19:55.568Z,9.20
2022-11-18T04:22:22.641Z,9.20
2022-11-18T04:24:49.461Z,9.10
2022-11-18T04:27:16.221Z,9.10
2022-11-18T04:29:43.152Z,9.10
2022-11-18T04:32:09.868Z,9.10
2022-11-18T04:34:36.581Z,9.10
2022-11-18T04:37:03.630Z,9.10
2022-11-18T04:39:30.308Z,9.00
2022-11-18T04:41:57.138Z,9.00
2022-11-18T04:44:29.281Z,9.00
2022-11-18T04:46:57.579Z,9.00
2022-11-18T04:49:24.924Z,9.00
2022-11-18T04:51:52.627Z,9.00
2022-11-18T04:54:20.421Z,9.00
2022-11-18T04:56:49.605Z,9.00
2022-11-18T04:59:20.784Z,9.00
2022-11-18T05:01:48.879Z,9.00
2022-11-18T05:04:18.130Z,9.00
2022-11-18T05:06:45.575Z,8.90
2022-11-18T05:09:12.273Z,8.90
2022-11-18T05:11:57.823Z,8.90
2022-11-18T05:14:28.822Z,8.90
2022-11-18T05:16:57.071Z,8.90
2022-11-18T05:19:24.170Z,8.90
2022-11-18T05:21:51.457Z,8.90
2022-11-18T05:24:18.349Z,8.90
2022-11-18T05:26:45.454Z,8.90
2022-11-18T05:29:12.942Z,8.80
2022-11-18T05:31:40.022Z,8.90
2022-11-18T05:34:06.783Z,8.90
2022-11-18T05:36:33.814Z,8.80
2022-11-18T05:39:00.879Z,8.70
2022-11-18T05:41:46.124Z,8.80
2022-11-18T05:44:12.961Z,8.80
2022-11-18T05:46:40.093Z,8.80
2022-11-18T05:49:07.640Z,8.70
2022-11-18T05:51:34.981Z,8.70
2022-11-18T05:54:07.213Z,8.80
2022-11-18T05:56:41.273Z,8.80
2022-11-18T05:59:08.163Z,8.70
2022-11-18T06:01:43.464Z,8.70
2022-11-18T06:04:18.798Z,8.60
2022-11-18T06:06:48.588Z,8.70
2022-11-18T06:09:19.325Z,8.70
2022-11-18T06:11:52.977Z,8.70
2022-11-18T06:14:32.298Z,8.70
2022-11-18T06:17:02.636Z,8.70
2022-11-18T06:19:29.911Z,8.70
2022-11-18T06:21:56.973Z,8.70
2022-11-18T06:24:24.700Z,8.70
2022-11-18T06:26:51.797Z,8.60
2022-11-18T06:29:24.546Z,8.60
2022-11-18T06:31:54.368Z,8.60
2022-11-18T06:34:21.176Z,8.50
2022-11-18T06:36:48.273Z,8.50
2022-11-18T06:39:15.239Z,8.50
2022-11-18T06:41:42.425Z,8.50
2022-11-18T06:44:11.858Z,8.40
2022-11-18T06:46:57.442Z,8.40
2022-11-18T06:49:25.666Z,8.40
2022-11-18T06:51:52.692Z,8.40
2022-11-18T06:54:19.692Z,8.40
2022-11-18T06:56:47.665Z,8.40
2022-11-18T06:59:14.568Z,8.40
2022-11-18T07:01:42.270Z,8.30
2022-11-18T07:04:11.533Z,8.30
2022-11-18T07:06:38.593Z,8.30
2022-11-18T07:09:07.171Z,8.20
2022-11-18T07:11:34.625Z,8.20
2022-11-18T07:14:01.849Z,8.20
2022-11-18T07:16:29.002Z,8.20
2022-11-18T07:18:56.700Z,8.20
2022-11-18T07:21:26.481Z,8.20
2022-11-18T07:23:53.814Z,8.20
2022-11-18T07:26:21.365Z,8.20
2022-11-18T07:28:48.950Z,8.20
2022-11-18T07:31:18.204Z,8.30
2022-11-18T07:33:45.996Z,8.30
2022-11-18T07:36:18.697Z,8.20
2022-11-18T07:38:46.298Z,8.30
2022-11-18T07:41:15.644Z,8.30
2022-11-18T07:43:43.291Z,8.30
2022-11-18T07:46:14.763Z,8.30
2022-11-18T07:48:44.618Z,8.30
2022-11-18T07:51:12.565Z,8.30
2022-11-18T07:53:39.312Z,8.30
2022-11-18T07:56:07.143Z,8.40
2022-11-18T07:58:34.076Z,8.40
2022-11-18T08:01:08.556Z,8.40
2022-11-18T08:03:35.532Z,8.40
2022-11-18T08:06:03.482Z,8.30
2022-11-18T08:08:30.550Z,8.30
2022-11-18T08:10:58.674Z,8.30
2022-11-18T08:13:26.726Z,8.30
2022-11-18T08:15:54.567Z,8.30
2022-11-18T08:18:21.824Z,8.30
2022-11-18T08:20:49.055Z,8.30
2022-11-18T08:23:16.490Z,8.40
2022-11-18T08:25:44.353Z,8.30
2022-11-18T08:28:12.863Z,8.40
2022-11-18T08:30:40.277Z,8.40
2022-11-18T08:33:07.294Z,8.50
2022-11-18T08:35:34.104Z,8.50
2022-11-18T08:38:00.873Z,8.60
2022-11-18T08:40:27.550Z,8.60
2022-11-18T08:42:54.298Z,8.70
2022-11-18T08:45:21.035Z,8.70
2022-11-18T08:47:47.832Z,8.90
2022-11-18T08:50:14.589Z,9.00
2022-11-18T08:52:41.375Z,9.10
2022-11-18T08:55:08.519Z,9.00
2022-11-18T08:57:35.213Z,9.10
2022-11-18T09:00:02.564Z,9.10
2022-11-18T09:02:29.304Z,9.10
2022-11-18T09:04:56.103Z,9.00
2022-11-18T09:07:23.031Z,9.00
2022-11-18T09:09:50.092Z,9.00
2022-11-18T09:12:17.480Z,9.00
2022-11-18T09:17:32.353Z,9.00
2022-11-18T09:19:59.108Z,9.00
2022-11-18T09:22:25.974Z,9.10
2022-11-18T09:24:52.673Z,9.10
2022-11-18T09:27:19.469Z,9.20
2022-11-18T09:29:46.516Z,9.30
2022-11-18T09:32:13.313Z,9.30
2022-11-18T09:34:40.192Z,9.50
2022-11-18T09:37:07.190Z,9.50
2022-11-18T09:39:37.519Z,9.50
2022-11-18T09:42:29.931Z,9.50
2022-11-18T09:45:22.435Z,9.60
2022-11-18T09:47:51.276Z,9.80
2022-11-18T09:50:47.906Z,9.70
2022-11-18T09:53:39.641Z,9.60
2022-11-18T09:56:14.701Z,9.60
2022-11-18T09:58:42.825Z,9.50
2022-11-18T10:01:17.228Z,9.60
2022-11-18T10:03:44.142Z,9.50
2022-11-18T10:06:26.561Z,9.50
2022-11-18T10:09:14.766Z,9.60
2022-11-18T10:11:56.504Z,9.60
2022-11-18T10:14:32.180Z,9.70
2022-11-18T10:17:24.950Z,9.70
2022-11-18T10:20:10.291Z,9.70
2022-11-18T10:22:55.958Z,9.70
2022-11-18T10:25:22.771Z,9.80
2022-11-18T10:27:50.661Z,9.70
2022-11-18T10:30:17.815Z,9.70
2022-11-18T10:32:54.904Z,9.70
2022-11-18T10:35:35.434Z,9.90
2022-11-18T10:38:22.397Z,10.00
2022-11-18T10:41:01.423Z,10.10
2022-11-18T10:43:57.072Z,10.20
2022-11-18T10:46:29.375Z,10.10
2022-11-18T10:49:08.508Z,10.20
2022-11-18T10:51:43.181Z,10.20
2022-11-18T10:54:14.974Z,10.10
2022-11-18T10:57:02.304Z,10.20
2022-11-18T10:59:40.829Z,10.20
2022-11-18T11:02:35.165Z,10.20
2022-11-18T11:05:16.872Z,10.20
2022-11-18T11:07:43.747Z,10.20
2022-11-18T11:10:10.577Z,10.20
2022-11-18T11:13:14.325Z,10.10
2022-11-18T11:15:47.622Z,10.00
2022-11-18T11:18:41.412Z,10.10
2022-11-18T11:21:16.336Z,10.10
2022-11-18T11:23:44.036Z,10.20
2022-11-18T11:29:20.947Z,10.20
2022-11-18T11:32:06.628Z,10.30
2022-11-18T11:35:14.179Z,10.40
2022-11-18T11:38:05.611Z,10.40
2022-11-18T11:40:39.644Z,10.50
2022-11-18T11:43:31.304Z,10.50
2022-11-18T11:45:57.988Z,10.40
2022-11-18T11:48:45.850Z,10.30
2022-11-18T11:51:28.774Z,10.30
2022-11-18T11:54:11.095Z,10.30
2022-11-18T11:56:44.856Z,10.30
2022-11-18T11:59:55.746Z,10.30
2022-11-18T12:02:36.070Z,10.30
2022-11-18T12:05:35.974Z,10.40
2022-11-18T12:08:27.513Z,10.40
2022-11-18T12:11:00.923Z,10.30
2022-11-18T12:13:33.736Z,10.40
2022-11-18T12:16:03.461Z,10.30
2022-11-18T12:18:47.183Z,10.30
2022-11-18T12:21:47.514Z,10.20
2022-11-18T12:24:30.791Z,10.20
2022-11-18T12:27:03.500Z,10.20
2022-11-18T12:29:42.163Z,10.30
2022-11-18T12:32:27.467Z,10.30
2022-11-18T12:35:14.143Z,10.40
2022-11-18T12:38:02.055Z,10.40
2022-11-18T12:40:52.353Z,10.50
2022-11-18T12:43:44.058Z,10.50
2022-11-18T12:46:31.129Z,10.60
2022-11-18T12:48:57.953Z,10.60
2022-11-18T12:51:25.290Z,10.60
2022-11-18T12:53:53.815Z,10.60
2022-11-18T12:56:24.560Z,10.50
2022-11-18T12:58:53.462Z,10.40
2022-11-18T13:01:23.242Z,10.40
2022-11-18T13:03:50.264Z,10.20
2022-11-18T13:06:29.458Z,10.20
2022-11-18T13:09:01.117Z,10.30
2022-11-18T13:11:44.453Z,10.30
2022-11-18T13:14:44.603Z,10.30
2022-11-18T13:17:54.616Z,10.40
2022-11-18T13:20:43.084Z,10.40
2022-11-18T13:23:28.600Z,10.50
2022-11-18T13:26:07.069Z,10.40
2022-11-18T13:28:51.884Z,10.40
2022-11-18T13:31:47.877Z,10.40
2022-11-18T13:34:47.191Z,10.40
2022-11-18T13:37:26.036Z,10.30
2022-11-18T13:39:53.341Z,10.30
2022-11-18T13:42:23.023Z,10.20
2022-11-18T13:44:58.658Z,10.30
2022-11-18T13:47:49.563Z,10.20
2022-11-18T13:50:20.863Z,10.30
2022-11-18T13:53:00.332Z,10.30
2022-11-18T13:55:30.540Z,10.30
2022-11-18T13:58:05.105Z,10.40
2022-11-18T14:00:35.621Z,10.40
2022-11-18T14:03:23.379Z,10.40
2022-11-18T14:05:57.822Z,10.40
2022-11-18T14:08:35.869Z,10.40
2022-11-18T14:11:05.696Z,10.40
2022-11-18T14:13:37.416Z,10.30
2022-11-18T14:16:24.095Z,10.30
2022-11-18T14:18:52.024Z,10.30
2022-11-18T14:21:39.544Z,10.40
2022-11-18T14:24:06.634Z,10.30
2022-11-18T14:26:38.421Z,10.30
2022-11-18T14:29:23.265Z,10.30
2022-11-18T14:32:16.211Z,10.30
2022-11-18T14:34:42.956Z,10.30
2022-11-18T14:37:14.803Z,10.30
2022-11-18T14:39:41.713Z,10.20
2022-11-18T14:42:12.997Z,10.30
2022-11-18T14:44:39.898Z,10.30
2022-11-18T14:47:20.926Z,10.30
2022-11-18T14:49:47.613Z,10.40
2022-11-18T14:52:14.357Z,10.40
2022-11-18T14:54:41.039Z,10.40
2022-11-18T14:57:15.482Z,10.40
2022-11-18T14:59:42.372Z,10.40
2022-11-18T15:02:18.054Z,10.30
2022-11-18T15:04:45.006Z,10.30
2022-11-18T15:07:22.795Z,10.30
2022-11-18T15:09:50.684Z,10.30
2022-11-18T15:12:17.633Z,10.20
2022-11-18T15:14:44.406Z,10.20
2022-11-18T15:17:13.544Z,10.10
2022-11-18T15:19:43.044Z,10.10
2022-11-18T15:22:09.953Z,10.10
2022-11-18T15:24:37.005Z,10.00
2022-11-18T15:27:05.264Z,10.00
2022-11-18T15:29:32.257Z,10.00
2022-11-18T15:31:59.908Z,10.00
2022-11-18T15:34:27.042Z,9.90
2022-11-18T15:36:53.795Z,9.90
2022-11-18T15:39:21.062Z,9.90
2022-11-18T15:41:47.783Z,9.80
2022-11-18T15:44:14.675Z,9.70
2022-11-18T15:46:41.593Z,9.70
2022-11-18T15:49:13.200Z,9.70
2022-11-18T15:51:40.491Z,9.60
2022-11-18T15:54:07.398Z,9.60
2022-11-18T15:56:34.621Z,9.60
2022-11-18T15:59:10.390Z,9.60
2022-11-18T16:01:40.514Z,9.50
2022-11-18T16:04:10.080Z,9.40
2022-11-18T16:06:37.883Z,9.40
2022-11-18T16:09:06.123Z,9.40
2022-11-18T16:11:51.952Z,9.40
2022-11-18T16:14:20.387Z,9.40
2022-11-18T16:16:48.735Z,9.40
2022-11-18T16:19:18.731Z,9.40
2022-11-18T16:21:48.234Z,9.40
2022-11-18T16:24:26.636Z,9.40
2022-11-18T16:26:53.686Z,9.40
2022-11-18T16:29:21.050Z,9.50
2022-11-18T16:31:52.769Z,9.40
2022-11-18T16:34:24.376Z,9.40
2022-11-18T16:36:53.252Z,9.40
2022-11-18T16:39:25.844Z,9.40
2022-11-18T16:42:02.213Z,9.40
2022-11-18T16:44:34.197Z,9.40
2022-11-18T16:47:00.940Z,9.40
2022-11-18T16:49:28.238Z,9.30
2022-11-18T16:51:56.887Z,9.40
2022-11-18T16:54:31.678Z,9.40
2022-11-18T16:56:59.748Z,9.30
2022-11-18T16:59:29.186Z,9.40
2022-11-18T17:01:57.553Z,9.30
2022-11-18T17:04:25.858Z,9.30
2022-11-18T17:06:53.560Z,9.30
2022-11-18T17:09:22.597Z,9.30
2022-11-18T17:11:50.519Z,9.30
2022-11-18T17:14:17.555Z,9.20
2022-11-18T17:16:44.258Z,9.20
2022-11-18T17:19:14.820Z,9.30
2022-11-18T17:21:42.248Z,9.30
2022-11-18T17:24:10.548Z,9.30
2022-11-18T17:26:37.294Z,9.20
2022-11-18T17:29:04.160Z,9.20
2022-11-18T17:31:30.886Z,9.20
2022-11-18T17:33:57.955Z,9.20
2022-11-18T17:36:26.649Z,9.20
2022-11-18T17:38:55.531Z,9.20
2022-11-18T17:41:42.797Z,9.20
2022-11-18T17:44:11.957Z,9.20
2022-11-18T17:46:38.938Z,9.20
2022-11-18T17:49:12.274Z,9.20
2022-11-18T17:51:39.305Z,9.10
2022-11-18T17:54:06.221Z,9.10
2022-11-18T17:56:33.066Z,9.10
2022-11-18T17:58:59.871Z,9.10
2022-11-18T18:01:26.641Z,9.10
2022-11-18T18:03:53.825Z,9.00
2022-11-18T18:06:21.397Z,9.00
2022-11-18T18:08:48.140Z,8.90
2022-11-18T18:11:17.662Z,8.90
2022-11-18T18:14:03.514Z,8.80
2022-11-18T18:16:32.476Z,8.80
2022-11-18T18:19:01.012Z,8.80
2022-11-18T18:21:28.421Z,8.70
2022-11-18T18:23:55.860Z,8.80
2022-11-18T18:26:28.151Z,8.70
2022-11-18T18:28:58.655Z,8.80
2022-11-18T18:31:25.494Z,8.80
2022-11-18T18:33:52.433Z,8.80
2022-11-18T18:36:20.505Z,8.80
2022-11-18T18:38:47.667Z,8.80
2022-11-18T18:41:20.701Z,8.80
2022-11-18T18:43:47.957Z,8.80
2022-11-18T18:46:30.126Z,8.80
2022-11-18T18:49:13.293Z,8.80
2022-11-18T18:51:45.118Z,8.80
2022-11-18T18:54:14.109Z,8.80
2022-11-18T18:56:41.188Z,8.80
2022-11-18T18:59:08.727Z,8.80
2022-11-18T19:01:36.370Z,8.80
2022-11-18T19:04:06.162Z,8.80
2022-11-18T19:09:25.418Z,8.80
2022-11-18T19:12:11.485Z,8.80
2022-11-18T19:14:38.344Z,8.70
2022-11-18T19:17:10.846Z,8.70
2022-11-18T19:19:59.302Z,8.60
2022-11-18T19:22:30.105Z,8.70
2022-11-18T19:24:57.287Z,8.70
2022-11-18T19:27:24.472Z,8.70
2022-11-18T19:29:51.413Z,8.70
2022-11-18T19:32:18.240Z,8.70
2022-11-18T19:34:44.947Z,8.70
2022-11-18T19:37:11.796Z,8.70
2022-11-18T19:39:38.781Z,8.70
2022-11-18T19:42:05.697Z,8.60
2022-11-18T19:44:32.399Z,8.60
2022-11-18T19:46:59.248Z,8.60
2022-11-18T19:49:26.075Z,8.60
2022-11-18T19:51:52.746Z,8.60
2022-11-18T19:54:19.497Z,8.60
2022-11-18T19:56:46.351Z,8.60
2022-11-18T19:59:13.200Z,8.60
2022-11-18T20:01:42.797Z,8.50
2022-11-18T20:04:09.808Z,8.60
2022-11-18T20:06:37.101Z,8.50
2022-11-18T20:09:07.651Z,8.60
2022-11-18T20:11:34.458Z,8.60
2022-11-18T20:14:01.231Z,8.60
2022-11-18T20:16:28.129Z,8.50
2022-11-18T20:18:57.011Z,8.50
2022-11-18T20:21:24.935Z,8.50
2022-11-18T20:24:02.933Z,8.60
2022-11-18T20:26:35.090Z,8.60
2022-11-18T20:29:01.906Z,8.50
2022-11-18T20:31:29.218Z,8.60
2022-11-18T20:33:57.188Z,8.60
2022-11-18T20:36:31.089Z,8.50
2022-11-18T20:39:00.976Z,8.60
2022-11-18T20:41:31.953Z,8.60
2022-11-18T20:43:59.686Z,8.50
2022-11-18T20:46:26.727Z,8.60
2022-11-18T20:48:53.870Z,8.60
2022-11-18T20:51:24.535Z,8.60
2022-11-18T20:53:52.883Z,8.60
2022-11-18T20:56:21.990Z,8.70
2022-11-18T20:58:49.340Z,8.70
2022-11-18T21:01:21.835Z,8.60
2022-11-18T21:03:54.199Z,8.60
2022-11-18T21:06:23.162Z,8.70
2022-11-18T21:08:55.011Z,8.70
2022-11-18T21:11:22.099Z,8.70
2022-11-18T21:14:07.600Z,8.80
2022-11-18T21:16:34.476Z,8.80
2022-11-18T21:19:01.238Z,8.80
2022-11-18T21:21:48.633Z,8.80
2022-11-18T21:24:17.608Z,8.80
2022-11-18T21:26:46.190Z,8.80
2022-11-18T21:29:14.313Z,8.90
2022-11-18T21:31:42.108Z,8.80
2022-11-18T21:34:10.035Z,8.80
2022-11-18T21:36:42.750Z,8.70
2022-11-18T21:39:12.184Z,8.70
2022-11-18T21:41:39.003Z,8.60
2022-11-18T21:44:10.021Z,8.70
2022-11-18T21:46:38.813Z,8.70
2022-11-18T21:49:06.098Z,8.60
2022-11-18T21:51:33.808Z,8.60
2022-11-18T21:54:01.140Z,8.60
2022-11-18T21:56:30.764Z,8.60
2022-11-18T21:58:59.489Z,8.60
2022-11-18T22:01:28.399Z,8.60
2022-11-18T22:03:57.766Z,8.60
2022-11-18T22:06:26.141Z,8.50
2022-11-18T22:08:53.446Z,8.50
2022-11-18T22:11:22.280Z,8.50
2022-11-18T22:13:51.737Z,8.50
2022-11-18T22:16:22.016Z,8.50
2022-11-18T22:18:56.028Z,8.50
2022-11-18T22:21:26.011Z,8.50
2022-11-18T22:23:52.968Z,8.50
2022-11-18T22:26:21.060Z,8.50
2022-11-18T22:28:52.395Z,8.50
2022-11-18T22:31:21.159Z,8.50
2022-11-18T22:33:49.511Z,8.50
2022-11-18T22:36:17.887Z,8.50
2022-11-18T22:38:45.501Z,8.50
2022-11-18T22:41:41.567Z,8.40
2022-11-18T22:44:09.130Z,8.50
2022-11-18T22:46:36.933Z,8.50
2022-11-18T22:49:04.645Z,8.40
2022-11-18T22:51:32.315Z,8.50
2022-11-18T22:54:30.820Z,8.40
2022-11-18T22:56:46.462Z,8.40
2022-11-18T22:59:13.293Z,8.40
2022-11-18T23:01:40.443Z,8.50
2022-11-18T23:04:07.408Z,8.50
2022-11-18T23:06:34.247Z,8.50
2022-11-18T23:09:00.949Z,8.40
2022-11-18T23:11:46.372Z,8.40
2022-11-18T23:14:13.126Z,8.40
2022-11-18T23:16:41.993Z,8.30
2022-11-18T23:19:14.684Z,8.30
2022-11-18T23:21:42.499Z,8.30
2022-11-18T23:24:17.668Z,8.30
2022-11-18T23:26:45.293Z,8.30
2022-11-18T23:29:13.377Z,8.30
2022-11-18T23:31:42.730Z,8.30
2022-11-18T23:34:11.829Z,8.30
2022-11-18T23:36:39.104Z,8.30
2022-11-18T23:39:06.297Z,8.20
2022-11-18T23:41:33.218Z,8.20
2022-11-18T23:43:59.902Z,8.20
2022-11-18T23:46:27.586Z,8.10
2022-11-18T23:48:54.689Z,8.10
2022-11-18T23:51:23.172Z,8.10
2022-11-18T23:53:57.118Z,8.10
2022-11-18T23:56:26.028Z,8.20
2022-11-18T23:58:54.123Z,8.20
